createdAt,value
2018-03-09T00:01:29.973Z,1.30
2018-03-09T00:03:58.242Z,1.50
2018-03-09T00:06:26.490Z,1.43
2018-03-09T00:08:55.504Z,1.43
2018-03-09T00:11:23.738Z,1.47
2018-03-09T00:13:51.997Z,3.00
2018-03-09T00:16:20.258Z,1.40
2018-03-09T00:18:48.509Z,1.50
2018-03-09T00:21:17.529Z,1.27
2018-03-09T00:23:45.769Z,1.30
2018-03-09T00:26:14.013Z,1.60
2018-03-09T00:28:42.326Z,1.70
2018-03-09T00:31:11.348Z,1.77
2018-03-09T00:33:40.354Z,2.10
2018-03-09T00:36:08.617Z,1.53
2018-03-09T00:38:37.618Z,1.60
2018-03-09T00:41:06.801Z,1.83
2018-03-09T00:43:35.069Z,1.43
2018-03-09T00:46:03.301Z,2.07
2018-03-09T00:48:31.533Z,1.80
2018-03-09T00:51:11.739Z,1.83
2018-03-09T00:53:39.990Z,1.53
2018-03-09T00:56:08.230Z,1.70
2018-03-09T00:58:36.509Z,1.73
2018-03-09T01:01:04.767Z,2.00
2018-03-09T01:03:33.031Z,1.67
2018-03-09T01:06:02.062Z,1.93
2018-03-09T01:08:30.304Z,1.77
2018-03-09T01:10:59.427Z,1.33
2018-03-09T01:13:27.669Z,1.70
2018-03-09T01:15:56.694Z,2.10
2018-03-09T01:18:24.935Z,1.80
2018-03-09T01:20:53.270Z,1.60
2018-03-09T01:23:21.505Z,1.73
2018-03-09T01:25:49.760Z,1.73
2018-03-09T01:28:18.017Z,2.13
2018-03-09T01:30:46.305Z,1.70
2018-03-09T01:33:14.553Z,1.67
2018-03-09T01:35:42.854Z,3.30
2018-03-09T01:38:11.106Z,2.03
2018-03-09T01:40:40.118Z,1.87
2018-03-09T01:43:08.385Z,1.97
2018-03-09T01:45:37.411Z,2.37
2018-03-09T01:48:05.678Z,2.10
2018-03-09T01:50:33.947Z,2.50
2018-03-09T01:53:02.954Z,1.93
2018-03-09T01:55:31.971Z,1.50
2018-03-09T01:58:00.211Z,1.80
2018-03-09T02:00:29.237Z,2.67
2018-03-09T02:02:57.481Z,2.00
2018-03-09T02:05:25.852Z,1.70
2018-03-09T02:07:54.069Z,2.03
2018-03-09T02:10:28.131Z,2.43
2018-03-09T02:12:56.365Z,2.40
2018-03-09T02:15:24.622Z,3.20
2018-03-09T02:17:53.635Z,2.50
2018-03-09T02:20:21.896Z,2.70
2018-03-09T02:22:50.905Z,2.77
2018-03-09T02:25:19.934Z,3.10
2018-03-09T02:27:48.166Z,2.57
2018-03-09T02:30:17.194Z,2.93
2018-03-09T02:32:45.525Z,3.37
2018-03-09T02:35:13.749Z,3.50
2018-03-09T02:37:42.019Z,3.30
2018-03-09T02:40:11.048Z,3.00
2018-03-09T02:42:39.285Z,3.97
2018-03-09T02:45:08.313Z,3.23
2018-03-09T02:47:36.563Z,3.67
2018-03-09T02:50:05.605Z,3.30
2018-03-09T02:52:33.844Z,3.37
2018-03-09T02:55:02.094Z,4.13
2018-03-09T02:57:30.329Z,3.53
2018-03-09T02:59:58.582Z,3.93
2018-03-09T03:02:27.578Z,3.73
2018-03-09T03:04:56.599Z,3.53
2018-03-09T03:07:24.888Z,4.10
2018-03-09T03:09:53.129Z,3.60
2018-03-09T03:12:22.139Z,4.60
2018-03-09T03:14:51.157Z,4.70
2018-03-09T03:17:19.393Z,3.60
2018-03-09T03:19:47.639Z,3.90
2018-03-09T03:22:15.919Z,4.13
2018-03-09T03:24:44.205Z,4.43
2018-03-09T03:27:12.445Z,4.83
2018-03-09T03:29:40.753Z,4.87
2018-03-09T03:32:09.010Z,4.73
2018-03-09T03:34:37.313Z,4.93
2018-03-09T03:37:05.597Z,4.97
2018-03-09T03:39:33.832Z,4.20
2018-03-09T03:44:35.863Z,5.10
2018-03-09T03:47:04.866Z,4.80
2018-03-09T03:49:33.111Z,5.40
2018-03-09T03:52:02.145Z,5.10
2018-03-09T03:54:30.377Z,4.40
2018-03-09T03:56:58.621Z,5.30
2018-03-09T03:59:26.857Z,6.50
2018-03-09T04:01:55.149Z,6.03
2018-03-09T04:04:23.434Z,7.77
2018-03-09T04:06:51.720Z,5.50
2018-03-09T04:09:19.956Z,6.23
2018-03-09T04:11:48.975Z,5.70
2018-03-09T04:14:17.285Z,5.03
2018-03-09T04:16:45.545Z,5.20
2018-03-09T04:19:13.786Z,5.43
2018-03-09T04:21:42.119Z,6.00
2018-03-09T04:24:10.798Z,5.13
2018-03-09T04:26:39.103Z,6.10
2018-03-09T04:29:07.338Z,5.50
2018-03-09T04:31:36.365Z,5.50
2018-03-09T04:34:04.617Z,5.40
2018-03-09T04:36:33.646Z,5.87
2018-03-09T04:39:01.986Z,5.60
2018-03-09T04:41:31.018Z,5.40
2018-03-09T04:43:59.268Z,5.87
2018-03-09T04:46:28.290Z,6.40
2018-03-09T04:48:57.151Z,6.27
2018-03-09T04:51:25.445Z,6.20
2018-03-09T04:53:54.566Z,7.17
2018-03-09T04:56:22.809Z,6.90
2018-03-09T04:58:51.053Z,6.90
2018-03-09T05:01:19.346Z,7.40
2018-03-09T05:03:47.598Z,7.20
2018-03-09T05:06:15.870Z,6.53
2018-03-09T05:08:44.115Z,6.87
2018-03-09T05:11:13.144Z,7.97
2018-03-09T05:13:41.380Z,6.63
2018-03-09T05:16:09.634Z,7.27
2018-03-09T05:18:37.882Z,7.70
2018-03-09T05:21:06.917Z,8.03
2018-03-09T05:23:35.188Z,8.40
2018-03-09T05:26:03.470Z,7.13
2018-03-09T05:28:31.733Z,7.73
2018-03-09T05:31:00.022Z,7.80
2018-03-09T05:33:28.280Z,8.87
2018-03-09T05:35:57.282Z,8.50
2018-03-09T05:38:25.533Z,7.60
2018-03-09T05:40:53.779Z,7.93
2018-03-09T05:43:22.049Z,7.90
2018-03-09T05:45:50.287Z,9.13
2018-03-09T05:48:19.304Z,7.77
2018-03-09T05:50:47.610Z,8.23
2018-03-09T05:55:51.541Z,10.00
2018-03-09T05:58:19.825Z,8.57
2018-03-09T06:00:48.080Z,7.87
2018-03-09T06:03:17.101Z,8.70
2018-03-09T06:05:45.344Z,8.30
2018-03-09T06:08:14.385Z,7.50
2018-03-09T06:10:42.637Z,9.37
2018-03-09T06:13:11.651Z,9.10
2018-03-09T06:15:39.943Z,8.53
2018-03-09T06:18:08.210Z,8.70
2018-03-09T06:20:36.473Z,8.53
2018-03-09T06:23:08.579Z,8.77
2018-03-09T06:25:41.461Z,8.10
2018-03-09T06:28:09.710Z,9.40
2018-03-09T06:30:38.738Z,11.00
2018-03-09T06:33:07.265Z,12.00
2018-03-09T06:35:35.606Z,8.33
2018-03-09T06:38:04.103Z,8.93
2018-03-09T06:40:32.350Z,9.47
2018-03-09T06:43:01.354Z,9.20
2018-03-09T06:45:29.609Z,9.27
2018-03-09T06:47:58.629Z,10.10
2018-03-09T06:50:26.930Z,9.30
2018-03-09T06:52:55.177Z,10.13
2018-03-09T06:55:24.224Z,9.80
2018-03-09T06:57:52.499Z,10.67
2018-03-09T07:00:20.767Z,10.47
2018-03-09T07:02:49.010Z,10.10
2018-03-09T07:05:18.046Z,10.30
2018-03-09T07:07:46.344Z,11.40
2018-03-09T07:10:14.595Z,10.03
2018-03-09T07:12:42.894Z,10.23
2018-03-09T07:15:11.166Z,10.93
2018-03-09T07:17:39.435Z,10.20
2018-03-09T07:20:07.711Z,9.10
2018-03-09T07:22:36.734Z,9.70
2018-03-09T07:25:05.017Z,9.57
2018-03-09T07:27:33.282Z,10.30
2018-03-09T07:30:01.602Z,9.70
2018-03-09T07:32:29.857Z,11.13
2018-03-09T07:34:58.111Z,9.37
2018-03-09T07:37:28.685Z,9.93
2018-03-09T07:39:56.953Z,10.93
2018-03-09T07:42:25.227Z,9.80
2018-03-09T07:44:53.487Z,12.30
2018-03-09T07:47:21.772Z,9.87
2018-03-09T07:49:50.063Z,9.67
2018-03-09T07:52:18.318Z,10.40
2018-03-09T07:54:46.592Z,10.40
2018-03-09T07:57:14.968Z,8.50
2018-03-09T07:59:43.269Z,9.70
2018-03-09T08:02:12.377Z,8.70
2018-03-09T08:04:41.450Z,10.30
2018-03-09T08:07:10.532Z,9.30
2018-03-09T08:09:38.943Z,9.93
2018-03-09T08:12:08.026Z,9.93
2018-03-09T08:14:36.331Z,8.60
2018-03-09T08:17:04.711Z,9.40
2018-03-09T08:19:33.792Z,9.70
2018-03-09T08:22:02.119Z,10.33
2018-03-09T08:24:30.427Z,9.80
2018-03-09T08:26:59.027Z,9.40
2018-03-09T08:29:28.212Z,10.80
2018-03-09T08:31:56.531Z,11.30
2018-03-09T08:34:25.806Z,9.60
2018-03-09T08:36:54.113Z,11.73
2018-03-09T08:39:23.181Z,10.80
2018-03-09T08:41:51.869Z,11.67
2018-03-09T08:44:26.498Z,10.73
2018-03-09T08:46:55.292Z,11.10
2018-03-09T08:49:24.188Z,11.00
2018-03-09T08:51:52.926Z,10.83
2018-03-09T08:54:21.407Z,10.77
2018-03-09T08:56:54.217Z,11.27
2018-03-09T08:59:23.149Z,10.80
2018-03-09T09:01:55.146Z,12.80
2018-03-09T09:04:24.221Z,11.87
2018-03-09T09:06:52.537Z,11.17
2018-03-09T09:09:21.901Z,11.50
2018-03-09T09:11:50.726Z,11.50
2018-03-09T09:14:19.692Z,13.30
2018-03-09T09:16:48.111Z,10.73
2018-03-09T09:19:16.968Z,11.57
2018-03-09T09:21:45.311Z,11.30
2018-03-09T09:24:13.625Z,12.63
2018-03-09T09:26:41.965Z,12.30
2018-03-09T09:29:10.286Z,10.87
2018-03-09T09:31:38.639Z,13.20
2018-03-09T09:34:06.998Z,12.33
2018-03-09T09:36:36.097Z,14.40
2018-03-09T09:39:05.196Z,13.50
2018-03-09T09:41:35.318Z,13.53
2018-03-09T09:44:04.402Z,12.50
2018-03-09T09:46:33.530Z,12.80
2018-03-09T09:49:01.869Z,12.50
2018-03-09T09:51:30.968Z,13.20
2018-03-09T09:53:59.428Z,12.93
2018-03-09T09:56:27.769Z,13.33
2018-03-09T09:58:57.345Z,13.67
2018-03-09T10:01:25.657Z,13.60
2018-03-09T10:03:54.756Z,12.60
2018-03-09T10:06:23.860Z,13.47
2018-03-09T10:08:52.996Z,15.93
2018-03-09T10:11:21.469Z,13.87
2018-03-09T10:13:49.852Z,12.53
2018-03-09T10:16:18.335Z,13.40
2018-03-09T10:18:46.582Z,16.30
2018-03-09T10:21:15.168Z,14.07
2018-03-09T10:23:44.306Z,13.47
2018-03-09T10:26:12.616Z,12.30
2018-03-09T10:28:40.969Z,12.77
2018-03-09T10:31:09.272Z,14.10
2018-03-09T10:33:37.606Z,14.10
2018-03-09T10:36:06.692Z,13.07
2018-03-09T10:38:35.041Z,13.33
2018-03-09T10:41:03.432Z,13.60
2018-03-09T10:43:32.670Z,13.80
2018-03-09T10:46:01.237Z,14.10
2018-03-09T10:48:29.590Z,13.53
2018-03-09T10:50:57.913Z,13.30
2018-03-09T10:53:26.257Z,13.80
2018-03-09T10:55:54.582Z,15.90
2018-03-09T10:58:23.690Z,15.07
2018-03-09T11:00:52.784Z,14.70
2018-03-09T11:03:21.913Z,14.60
2018-03-09T11:05:50.227Z,15.33
2018-03-09T11:08:18.674Z,14.60
2018-03-09T11:10:47.062Z,13.87
2018-03-09T11:13:15.406Z,15.70
2018-03-09T11:15:43.766Z,15.40
2018-03-09T11:18:12.124Z,15.47
2018-03-09T11:20:40.464Z,16.50
2018-03-09T11:23:09.536Z,16.17
2018-03-09T11:25:37.859Z,16.03
2018-03-09T11:28:06.206Z,17.37
2018-03-09T11:30:34.642Z,16.57
2018-03-09T11:33:02.985Z,17.27
2018-03-09T11:35:31.427Z,17.73
2018-03-09T11:37:59.757Z,18.70
2018-03-09T11:40:28.862Z,17.00
2018-03-09T11:42:57.955Z,18.23
2018-03-09T11:45:27.038Z,17.70
2018-03-09T11:47:55.392Z,17.30
2018-03-09T11:50:23.725Z,18.03
2018-03-09T11:52:52.924Z,17.80
2018-03-09T11:55:21.994Z,17.77
2018-03-09T11:57:50.393Z,17.77
2018-03-09T12:00:19.520Z,18.73
2018-03-09T12:02:47.857Z,17.43
2018-03-09T12:05:16.233Z,18.27
2018-03-09T12:07:44.556Z,18.00
2018-03-09T12:10:13.678Z,17.20
2018-03-09T12:12:42.028Z,20.43
2018-03-09T12:15:11.139Z,18.40
2018-03-09T12:17:40.279Z,18.83
2018-03-09T12:20:08.634Z,16.77
2018-03-09T12:22:36.992Z,18.63
2018-03-09T12:25:05.370Z,18.40
2018-03-09T12:27:34.482Z,18.70
2018-03-09T12:30:02.861Z,18.80
2018-03-09T12:32:31.993Z,20.00
2018-03-09T12:35:02.442Z,19.67
2018-03-09T12:37:33.997Z,18.20
2018-03-09T12:40:02.343Z,20.47
2018-03-09T12:42:30.696Z,20.07
2018-03-09T12:44:59.066Z,20.00
2018-03-09T12:47:27.416Z,21.27
2018-03-09T12:49:55.788Z,20.13
2018-03-09T12:52:24.147Z,21.80
2018-03-09T12:54:53.232Z,19.20
2018-03-09T12:57:22.322Z,20.63
2018-03-09T12:59:51.449Z,20.17
2018-03-09T13:02:19.784Z,19.53
2018-03-09T13:04:48.134Z,19.60
2018-03-09T13:07:16.633Z,20.10
2018-03-09T13:09:45.213Z,20.40
2018-03-09T13:12:13.833Z,20.10
2018-03-09T13:14:48.066Z,20.90
2018-03-09T13:17:35.959Z,19.07
2018-03-09T13:20:05.418Z,18.90
2018-03-09T13:22:33.769Z,19.83
2018-03-09T13:25:02.052Z,19.73
2018-03-09T13:27:30.346Z,19.20
2018-03-09T13:29:59.397Z,20.27
2018-03-09T13:32:30.630Z,18.80
2018-03-09T13:34:58.905Z,19.90
2018-03-09T13:37:27.166Z,20.17
2018-03-09T13:39:56.210Z,21.00
2018-03-09T13:42:24.475Z,18.90
2018-03-09T13:44:52.904Z,20.40
2018-03-09T13:47:21.194Z,22.07
2018-03-09T13:49:49.462Z,19.07
2018-03-09T13:52:17.727Z,18.57
2018-03-09T13:54:46.001Z,20.17
2018-03-09T13:57:14.271Z,19.37
2018-03-09T13:59:42.592Z,19.70
2018-03-09T14:02:10.966Z,19.67
2018-03-09T14:04:40.062Z,20.67
2018-03-09T14:07:08.324Z,19.40
2018-03-09T14:09:36.626Z,19.00
2018-03-09T14:12:04.904Z,17.83
2018-03-09T14:14:33.214Z,20.83
2018-03-09T14:17:01.813Z,20.33
2018-03-09T14:19:30.079Z,19.83
2018-03-09T14:21:58.349Z,20.67
2018-03-09T14:24:26.729Z,19.67
2018-03-09T14:26:54.995Z,21.30
2018-03-09T14:29:23.309Z,19.30
2018-03-09T14:31:51.650Z,19.73
2018-03-09T14:34:19.922Z,20.30
2018-03-09T14:36:48.166Z,19.80
2018-03-09T14:39:16.469Z,19.37
2018-03-09T14:41:44.711Z,17.13
2018-03-09T14:44:13.772Z,17.50
2018-03-09T14:46:42.071Z,17.30
2018-03-09T14:49:10.356Z,17.87
2018-03-09T14:51:38.639Z,18.60
2018-03-09T14:54:07.005Z,19.07
2018-03-09T14:56:35.303Z,18.27
2018-03-09T14:59:03.579Z,17.73
2018-03-09T15:01:31.870Z,19.30
2018-03-09T15:04:01.665Z,18.10
2018-03-09T15:06:29.919Z,19.00
2018-03-09T15:08:58.208Z,18.60
2018-03-09T15:11:26.476Z,18.10
2018-03-09T15:13:54.786Z,19.30
2018-03-09T15:16:23.058Z,18.73
2018-03-09T15:18:51.327Z,19.00
2018-03-09T15:21:19.592Z,20.97
2018-03-09T15:23:47.851Z,19.93
2018-03-09T15:26:17.664Z,18.77
2018-03-09T15:28:45.949Z,19.47
2018-03-09T15:31:14.978Z,19.60
2018-03-09T15:33:43.252Z,20.10
2018-03-09T15:36:14.319Z,20.10
2018-03-09T15:38:42.618Z,19.53
2018-03-09T15:41:10.887Z,19.03
2018-03-09T15:43:39.169Z,22.83
2018-03-09T15:46:07.428Z,20.17
2018-03-09T15:48:35.693Z,19.97
2018-03-09T15:51:04.017Z,21.53
2018-03-09T15:53:33.100Z,23.67
2018-03-09T15:56:01.399Z,20.27
2018-03-09T15:58:29.682Z,20.53
2018-03-09T16:00:57.952Z,21.03
2018-03-09T16:03:26.248Z,20.57
2018-03-09T16:05:54.491Z,21.00
2018-03-09T16:08:22.756Z,18.87
2018-03-09T16:10:51.068Z,20.03
2018-03-09T16:13:19.345Z,20.70
2018-03-09T16:15:47.681Z,21.33
2018-03-09T16:18:15.876Z,23.73
2018-03-09T16:20:44.172Z,21.97
2018-03-09T16:23:12.458Z,23.47
2018-03-09T16:25:40.730Z,27.27
2018-03-09T16:28:08.994Z,26.53
2018-03-09T16:30:37.297Z,23.60
2018-03-09T16:33:05.604Z,22.23
2018-03-09T16:35:33.862Z,22.80
2018-03-09T16:38:02.139Z,22.80
2018-03-09T16:40:30.504Z,21.13
2018-03-09T16:42:58.771Z,21.50
2018-03-09T16:45:27.044Z,22.20
2018-03-09T16:47:55.315Z,22.43
2018-03-09T16:50:24.362Z,21.40
2018-03-09T16:52:52.609Z,21.30
2018-03-09T16:55:20.886Z,21.83
2018-03-09T16:57:49.152Z,22.40
2018-03-09T17:00:18.217Z,22.10
2018-03-09T17:02:46.467Z,20.47
2018-03-09T17:05:14.728Z,21.80
2018-03-09T17:07:43.049Z,22.20
2018-03-09T17:10:11.312Z,20.97
2018-03-09T17:12:39.587Z,22.50
2018-03-09T17:15:07.855Z,21.40
2018-03-09T17:17:36.195Z,21.83
2018-03-09T17:20:04.458Z,20.57
2018-03-09T17:22:32.773Z,20.83
2018-03-09T17:25:02.730Z,21.93
2018-03-09T17:27:31.001Z,23.57
2018-03-09T17:29:59.270Z,22.83
2018-03-09T17:32:28.853Z,22.53
2018-03-09T17:34:57.094Z,23.10
2018-03-09T17:37:25.823Z,24.60
2018-03-09T17:39:54.083Z,23.27
2018-03-09T17:42:22.321Z,25.27
2018-03-09T17:44:50.630Z,24.77
2018-03-09T17:47:18.866Z,25.43
2018-03-09T17:49:48.021Z,23.90
2018-03-09T17:52:16.254Z,26.47
2018-03-09T17:54:45.283Z,27.37
2018-03-09T17:57:13.535Z,24.90
2018-03-09T17:59:42.671Z,27.90
2018-03-09T18:02:10.926Z,26.53
2018-03-09T18:04:39.182Z,34.40
2018-03-09T18:07:08.227Z,28.27
2018-03-09T18:09:36.497Z,25.00
2018-03-09T18:12:04.766Z,26.83
2018-03-09T18:14:33.188Z,25.70
2018-03-09T18:17:01.452Z,26.33
2018-03-09T18:19:29.725Z,27.10
2018-03-09T18:21:57.978Z,27.40
2018-03-09T18:24:26.272Z,26.60
2018-03-09T18:26:54.508Z,26.47
2018-03-09T18:29:22.765Z,27.10
2018-03-09T18:31:51.027Z,24.97
2018-03-09T18:34:19.308Z,24.13
2018-03-09T18:36:47.534Z,24.77
2018-03-09T18:39:15.808Z,24.27
2018-03-09T18:41:44.042Z,26.30
2018-03-09T18:44:12.308Z,25.20
2018-03-09T18:46:41.325Z,24.10
2018-03-09T18:49:09.617Z,25.93
2018-03-09T18:51:37.878Z,25.10
2018-03-09T18:54:06.150Z,26.70
2018-03-09T18:56:34.493Z,26.80
2018-03-09T18:59:02.749Z,25.70
2018-03-09T19:01:30.998Z,25.77
2018-03-09T19:03:59.244Z,26.80
2018-03-09T19:06:28.269Z,25.63
2018-03-09T19:08:56.520Z,24.63
2018-03-09T19:11:24.785Z,23.80
2018-03-09T19:13:53.036Z,26.63
2018-03-09T19:16:21.298Z,24.93
2018-03-09T19:18:49.545Z,25.93
2018-03-09T19:21:18.593Z,26.90
2018-03-09T19:23:46.834Z,24.83
2018-03-09T19:26:15.867Z,24.97
2018-03-09T19:28:44.122Z,25.77
2018-03-09T19:31:13.149Z,25.80
2018-03-09T19:33:41.422Z,25.50
2018-03-09T19:36:09.690Z,26.07
2018-03-09T19:38:37.941Z,26.60
2018-03-09T19:41:06.225Z,25.53
2018-03-09T19:43:34.546Z,25.73
2018-03-09T19:46:02.836Z,26.30
2018-03-09T19:48:31.091Z,27.60
2018-03-09T19:50:59.701Z,27.53
2018-03-09T19:53:27.961Z,27.93
2018-03-09T19:55:57.017Z,28.30
2018-03-09T19:58:25.250Z,26.40
2018-03-09T20:00:53.542Z,25.97
2018-03-09T20:03:21.798Z,27.20
2018-03-09T20:05:50.246Z,26.10
2018-03-09T20:08:18.520Z,25.40
2018-03-09T20:10:46.775Z,27.30
2018-03-09T20:13:15.027Z,26.63
2018-03-09T20:15:43.296Z,25.87
2018-03-09T20:18:12.320Z,25.70
2018-03-09T20:20:40.577Z,25.97
2018-03-09T20:23:09.596Z,24.80
2018-03-09T20:25:37.887Z,24.60
2018-03-09T20:28:06.137Z,23.50
2018-03-09T20:30:34.412Z,24.20
2018-03-09T20:33:03.465Z,24.80
2018-03-09T20:35:31.762Z,21.63
2018-03-09T20:38:00.005Z,21.80
2018-03-09T20:40:28.266Z,20.40
2018-03-09T20:42:56.513Z,22.57
2018-03-09T20:45:25.568Z,21.73
2018-03-09T20:47:53.790Z,22.20
2018-03-09T20:50:22.821Z,21.37
2018-03-09T20:52:51.161Z,21.90
2018-03-09T20:55:19.402Z,22.70
2018-03-09T20:57:47.653Z,22.03
2018-03-09T21:00:16.784Z,22.17
2018-03-09T21:02:45.030Z,21.10
2018-03-09T21:05:13.349Z,23.37
2018-03-09T21:07:41.585Z,21.57
2018-03-09T21:10:10.613Z,24.07
2018-03-09T21:12:38.869Z,22.07
2018-03-09T21:15:07.125Z,22.60
2018-03-09T21:17:36.148Z,20.50
2018-03-09T21:20:04.513Z,22.27
2018-03-09T21:22:32.705Z,24.73
2018-03-09T21:25:01.034Z,24.10
2018-03-09T21:27:29.299Z,23.60
2018-03-09T21:29:57.560Z,20.10
2018-03-09T21:32:25.813Z,23.10
2018-03-09T21:34:54.844Z,21.77
2018-03-09T21:37:23.086Z,22.60
2018-03-09T21:39:52.122Z,23.23
2018-03-09T21:42:20.390Z,23.50
2018-03-09T21:44:48.662Z,25.10
2018-03-09T21:47:18.389Z,24.07
2018-03-09T21:49:46.657Z,25.13
2018-03-09T21:52:15.666Z,26.40
2018-03-09T21:54:43.961Z,26.10
2018-03-09T21:57:12.240Z,26.90
2018-03-09T21:59:40.498Z,25.53
2018-03-09T22:02:08.771Z,24.07
2018-03-09T22:04:37.781Z,23.77
2018-03-09T22:07:06.816Z,24.97
2018-03-09T22:09:35.077Z,24.53
2018-03-09T22:12:03.463Z,24.87
2018-03-09T22:14:33.140Z,24.17
2018-03-09T22:17:01.385Z,24.27
2018-03-09T22:19:29.629Z,25.13
2018-03-09T22:21:57.906Z,25.23
2018-03-09T22:24:26.153Z,24.70
2018-03-09T22:26:55.202Z,25.20
2018-03-09T22:29:23.454Z,24.60
2018-03-09T22:31:52.486Z,25.10
2018-03-09T22:34:20.734Z,23.97
2018-03-09T22:36:49.815Z,23.60
2018-03-09T22:39:18.830Z,23.60
2018-03-09T22:41:47.863Z,24.17
2018-03-09T22:44:16.116Z,23.10
2018-03-09T22:46:44.377Z,23.00
2018-03-09T22:49:13.386Z,23.73
2018-03-09T22:51:41.650Z,25.83
2018-03-09T22:54:10.683Z,27.50
2018-03-09T22:56:38.948Z,25.87
2018-03-09T22:59:07.958Z,26.57
2018-03-09T23:01:36.223Z,27.20
2018-03-09T23:04:05.278Z,25.60
2018-03-09T23:06:33.538Z,25.10
2018-03-09T23:09:01.800Z,26.50
2018-03-09T23:11:30.071Z,23.67
2018-03-09T23:13:58.329Z,25.53
2018-03-09T23:16:27.358Z,24.40
2018-03-09T23:18:55.606Z,25.30
2018-03-09T23:21:24.684Z,24.50
2018-03-09T23:23:52.894Z,24.73
2018-03-09T23:26:21.925Z,25.63
2018-03-09T23:28:50.190Z,24.90
2018-03-09T23:31:18.490Z,26.20
2018-03-09T23:33:46.747Z,25.80
2018-03-09T23:38:50.380Z,24.53
2018-03-09T23:41:18.647Z,23.30
2018-03-09T23:43:48.034Z,24.33
2018-03-09T23:46:17.067Z,23.20
2018-03-09T23:48:45.320Z,22.00
2018-03-09T23:51:14.357Z,24.27
2018-03-09T23:53:42.831Z,22.13
2018-03-09T23:56:13.943Z,23.00
2018-03-09T23:58:42.190Z,22.33
